createdAt,value
2023-03-04T00:00:57.525Z,53.88
2023-03-04T00:03:24.241Z,53.94
2023-03-04T00:05:50.810Z,52.76
2023-03-04T00:08:17.394Z,53.84
2023-03-04T00:10:44.187Z,53.65
2023-03-04T00:13:10.629Z,52.59
2023-03-04T00:15:37.241Z,53.63
2023-03-04T00:18:03.973Z,53.96
2023-03-04T00:20:30.518Z,53.81
2023-03-04T00:22:57.049Z,53.99
2023-03-04T00:25:23.617Z,54.01
2023-03-04T00:27:50.219Z,54.02
2023-03-04T00:30:17.072Z,54.20
2023-03-04T00:32:43.663Z,52.86
2023-03-04T00:35:10.344Z,53.70
2023-03-04T00:37:36.966Z,53.55
2023-03-04T00:40:04.072Z,53.67
2023-03-04T00:42:30.640Z,53.66
2023-03-04T00:44:57.228Z,53.86
2023-03-04T00:47:26.131Z,53.56
2023-03-04T00:49:52.682Z,53.56
2023-03-04T00:52:19.302Z,53.79
2023-03-04T00:54:46.117Z,53.83
2023-03-04T00:57:12.659Z,52.70
2023-03-04T00:59:40.817Z,53.69
2023-03-04T01:02:07.452Z,53.39
2023-03-04T01:04:34.020Z,53.45
2023-03-04T01:07:00.757Z,53.21
2023-03-04T01:09:27.484Z,53.43
2023-03-04T01:11:54.170Z,53.29
2023-03-04T01:14:20.833Z,53.14
2023-03-04T01:16:48.999Z,53.18
2023-03-04T01:19:16.179Z,53.28
2023-03-04T01:21:42.896Z,53.02
2023-03-04T01:24:09.470Z,53.34
2023-03-04T01:26:36.103Z,53.13
2023-03-04T01:29:03.456Z,53.18
2023-03-04T01:31:30.202Z,52.84
2023-03-04T01:33:56.756Z,52.26
2023-03-04T01:36:23.370Z,52.66
2023-03-04T01:38:49.944Z,52.66
2023-03-04T01:41:19.482Z,52.84
2023-03-04T01:43:46.068Z,52.71
2023-03-04T01:46:15.209Z,52.88
2023-03-04T01:48:42.253Z,52.83
2023-03-04T01:51:14.268Z,52.53
2023-03-04T01:53:41.020Z,52.68
2023-03-04T01:56:13.651Z,52.11
2023-03-04T01:58:40.310Z,52.49
2023-03-04T02:01:06.882Z,52.42
2023-03-04T02:03:33.454Z,52.63
2023-03-04T02:06:02.714Z,52.30
2023-03-04T02:08:29.414Z,52.72
2023-03-04T02:11:01.860Z,52.46
2023-03-04T02:13:28.526Z,52.34
2023-03-04T02:15:55.206Z,52.53
2023-03-04T02:18:24.901Z,52.63
2023-03-04T02:20:54.404Z,52.62
2023-03-04T02:23:45.352Z,52.29
2023-03-04T02:26:18.403Z,52.55
2023-03-04T02:28:45.756Z,52.65
2023-03-04T02:31:30.270Z,52.54
2023-03-04T02:34:00.426Z,52.68
2023-03-04T02:36:28.293Z,52.68
2023-03-04T02:38:55.999Z,52.58
2023-03-04T02:41:26.334Z,53.00
2023-03-04T02:43:55.093Z,52.93
2023-03-04T02:46:21.831Z,52.88
2023-03-04T02:48:48.722Z,51.94
2023-03-04T02:51:15.430Z,52.68
2023-03-04T02:53:42.049Z,52.51
2023-03-04T02:56:08.816Z,52.90
2023-03-04T02:58:35.289Z,52.21
2023-03-04T03:01:01.867Z,52.65
2023-03-04T03:03:28.579Z,52.77
2023-03-04T03:05:55.305Z,52.55
2023-03-04T03:08:21.905Z,53.05
2023-03-04T03:10:48.449Z,52.94
2023-03-04T03:13:15.041Z,52.80
2023-03-04T03:15:42.542Z,53.06
2023-03-04T03:18:10.972Z,52.80
2023-03-04T03:20:37.812Z,52.74
2023-03-04T03:23:04.369Z,52.05
2023-03-04T03:25:31.096Z,53.01
2023-03-04T03:27:57.573Z,52.19
2023-03-04T03:30:24.128Z,52.86
2023-03-04T03:32:50.849Z,53.10
2023-03-04T03:35:17.483Z,52.75
2023-03-04T03:37:44.140Z,53.12
2023-03-04T03:40:11.856Z,52.90
2023-03-04T03:42:38.420Z,53.18
2023-03-04T03:45:05.410Z,53.20
2023-03-04T03:47:32.034Z,53.28
2023-03-04T03:49:58.592Z,53.25
2023-03-04T03:52:25.329Z,53.04
2023-03-04T03:54:51.960Z,52.94
2023-03-04T03:57:18.541Z,53.12
2023-03-04T03:59:45.152Z,53.34
2023-03-04T04:02:11.739Z,53.03
2023-03-04T04:04:38.286Z,53.10
2023-03-04T04:07:04.864Z,53.15
2023-03-04T04:09:31.486Z,53.43
2023-03-04T04:11:58.283Z,53.23
2023-03-04T04:14:24.803Z,52.16
2023-03-04T04:19:24.960Z,53.11
2023-03-04T04:21:51.421Z,52.19
2023-03-04T04:24:19.612Z,53.18
2023-03-04T04:26:46.302Z,53.30
2023-03-04T04:29:14.776Z,53.65
2023-03-04T04:31:41.313Z,53.29
2023-03-04T04:34:07.842Z,53.57
2023-03-04T04:36:34.421Z,53.33
2023-03-04T04:39:00.963Z,53.28
2023-03-04T04:41:31.970Z,53.64
2023-03-04T04:43:58.388Z,53.56
2023-03-04T04:46:24.918Z,53.44
2023-03-04T04:48:51.453Z,53.66
2023-03-04T04:51:18.156Z,53.51
2023-03-04T04:53:44.912Z,53.60
2023-03-04T04:56:12.853Z,52.81
2023-03-04T04:58:39.628Z,53.74
2023-03-04T05:01:06.236Z,52.68
2023-03-04T05:03:34.561Z,53.67
2023-03-04T05:06:01.461Z,53.67
2023-03-04T05:08:27.973Z,53.61
2023-03-04T05:10:54.533Z,53.84
2023-03-04T05:13:21.197Z,54.02
2023-03-04T05:15:48.237Z,54.01
2023-03-04T05:18:14.712Z,54.23
2023-03-04T05:20:41.192Z,54.05
2023-03-04T05:23:07.648Z,54.32
2023-03-04T05:25:34.160Z,54.39
2023-03-04T05:28:02.369Z,54.19
2023-03-04T05:30:28.846Z,54.70
2023-03-04T05:32:55.265Z,54.37
2023-03-04T05:35:21.823Z,54.73
2023-03-04T05:37:48.421Z,54.67
2023-03-04T05:40:14.956Z,54.69
2023-03-04T05:42:41.393Z,54.67
2023-03-04T05:45:08.457Z,54.98
2023-03-04T05:47:34.887Z,55.07
2023-03-04T05:50:01.332Z,54.94
2023-03-04T05:52:28.964Z,55.23
2023-03-04T05:54:55.473Z,54.97
2023-03-04T05:57:22.039Z,55.08
2023-03-04T05:59:50.046Z,55.38
2023-03-04T06:02:16.643Z,55.56
2023-03-04T06:04:43.162Z,55.33
2023-03-04T06:07:09.653Z,55.26
2023-03-04T06:09:36.198Z,55.30
2023-03-04T06:12:02.762Z,55.24
2023-03-04T06:14:29.318Z,55.13
2023-03-04T06:16:55.867Z,55.29
2023-03-04T06:19:22.753Z,55.63
2023-03-04T06:21:49.185Z,53.83
2023-03-04T06:24:15.736Z,55.48
2023-03-04T06:26:42.167Z,55.62
2023-03-04T06:29:09.013Z,55.42
2023-03-04T06:31:35.453Z,53.97
2023-03-04T06:34:01.911Z,55.16
2023-03-04T06:36:28.426Z,55.65
2023-03-04T06:38:54.960Z,55.63
2023-03-04T06:41:21.565Z,55.34
2023-03-04T06:43:48.033Z,55.34
2023-03-04T06:46:14.525Z,55.64
2023-03-04T06:48:41.006Z,55.89
2023-03-04T06:51:09.394Z,56.11
2023-03-04T06:53:36.229Z,55.96
2023-03-04T06:56:02.658Z,54.30
2023-03-04T06:58:29.163Z,55.60
2023-03-04T07:00:55.766Z,55.95
2023-03-04T07:03:24.661Z,56.24
2023-03-04T07:05:51.191Z,56.53
2023-03-04T07:08:17.674Z,56.13
2023-03-04T07:10:44.174Z,56.35
2023-03-04T07:13:10.683Z,56.64
2023-03-04T07:15:37.824Z,56.64
2023-03-04T07:18:04.364Z,56.50
2023-03-04T07:20:31.839Z,56.42
2023-03-04T07:22:58.330Z,56.72
2023-03-04T07:25:24.804Z,56.42
2023-03-04T07:27:51.277Z,58.56
2023-03-04T07:30:17.990Z,58.60
2023-03-04T07:32:44.521Z,58.08
2023-03-04T07:35:11.059Z,58.29
2023-03-04T07:37:37.804Z,59.01
2023-03-04T07:40:04.634Z,57.17
2023-03-04T07:42:31.034Z,56.13
2023-03-04T07:44:57.849Z,56.14
2023-03-04T07:47:24.280Z,54.85
2023-03-04T07:49:50.864Z,55.73
2023-03-04T07:52:17.381Z,55.92
2023-03-04T07:54:43.849Z,55.88
2023-03-04T07:57:10.349Z,56.13
2023-03-04T07:59:36.826Z,56.16
2023-03-04T08:02:03.326Z,56.79
2023-03-04T08:04:29.848Z,56.86
2023-03-04T08:06:56.370Z,56.84
2023-03-04T08:09:22.954Z,57.08
2023-03-04T08:11:49.522Z,57.00
2023-03-04T08:14:16.128Z,57.16
2023-03-04T08:16:42.604Z,56.85
2023-03-04T08:19:09.564Z,57.09
2023-03-04T08:21:38.913Z,56.91
2023-03-04T08:24:08.965Z,56.57
2023-03-04T08:26:41.408Z,56.83
2023-03-04T08:29:10.313Z,57.27
2023-03-04T08:31:37.271Z,57.17
2023-03-04T08:34:07.629Z,57.19
2023-03-04T08:36:34.734Z,57.25
2023-03-04T08:39:04.261Z,56.87
2023-03-04T08:41:30.787Z,57.28
2023-03-04T08:43:57.457Z,56.87
2023-03-04T08:46:23.947Z,56.95
2023-03-04T08:48:50.401Z,56.81
2023-03-04T08:51:17.298Z,56.39
2023-03-04T08:53:44.311Z,56.37
2023-03-04T08:56:11.238Z,57.40
2023-03-04T08:58:37.788Z,57.37
2023-03-04T09:01:05.238Z,57.75
2023-03-04T09:03:31.772Z,58.14
2023-03-04T09:05:58.338Z,58.00
2023-03-04T09:08:25.325Z,58.24
2023-03-04T09:10:54.034Z,58.25
2023-03-04T09:13:21.694Z,58.31
2023-03-04T09:15:51.285Z,58.08
2023-03-04T09:18:19.744Z,58.33
2023-03-04T09:20:46.914Z,57.95
2023-03-04T09:23:14.361Z,58.15
2023-03-04T09:25:41.995Z,57.96
2023-03-04T09:28:08.524Z,58.10
2023-03-04T09:30:35.537Z,58.08
2023-03-04T09:33:02.128Z,57.87
2023-03-04T09:35:30.107Z,58.02
2023-03-04T09:37:58.008Z,57.81
2023-03-04T09:40:46.712Z,57.13
2023-03-04T09:43:22.629Z,57.30
2023-03-04T09:45:56.603Z,57.08
2023-03-04T09:48:27.539Z,57.39
2023-03-04T09:51:11.061Z,57.05
2023-03-04T09:53:45.644Z,56.75
2023-03-04T09:56:14.356Z,57.31
2023-03-04T09:58:49.632Z,57.15
2023-03-04T10:01:42.700Z,56.85
2023-03-04T10:04:22.286Z,56.91
2023-03-04T10:06:54.501Z,57.41
2023-03-04T10:09:45.832Z,56.97
2023-03-04T10:12:15.252Z,58.01
2023-03-04T10:14:51.438Z,57.88
2023-03-04T10:17:34.530Z,57.51
2023-03-04T10:20:11.269Z,57.50
2023-03-04T10:22:49.804Z,57.24
2023-03-04T10:25:25.363Z,57.63
2023-03-04T10:27:56.485Z,57.61
2023-03-04T10:30:45.094Z,56.97
2023-03-04T10:33:17.233Z,57.24
2023-03-04T10:35:49.507Z,57.57
2023-03-04T10:38:16.604Z,57.62
2023-03-04T10:40:44.592Z,56.97
2023-03-04T10:43:20.191Z,57.11
2023-03-04T10:45:48.987Z,56.49
2023-03-04T10:48:27.546Z,56.28
2023-03-04T10:50:54.881Z,55.19
2023-03-04T10:53:33.615Z,54.97
2023-03-04T10:56:00.395Z,55.31
2023-03-04T10:58:26.770Z,54.70
2023-03-04T11:01:03.826Z,54.55
2023-03-04T11:03:31.970Z,54.69
2023-03-04T11:06:11.667Z,54.32
2023-03-04T11:08:41.063Z,53.59
2023-03-04T11:11:44.478Z,53.31
2023-03-04T11:14:36.839Z,53.01
2023-03-04T11:17:15.701Z,53.19
2023-03-04T11:19:45.418Z,52.13
2023-03-04T11:22:16.782Z,52.33
2023-03-04T11:24:43.779Z,52.07
2023-03-04T11:27:20.766Z,51.41
2023-03-04T11:29:58.216Z,51.34
2023-03-04T11:32:28.800Z,51.21
2023-03-04T11:35:21.395Z,51.11
2023-03-04T11:38:02.523Z,51.46
2023-03-04T11:40:38.650Z,51.32
2023-03-04T11:43:17.869Z,51.78
2023-03-04T11:45:56.142Z,51.63
2023-03-04T11:48:46.735Z,51.67
2023-03-04T11:51:19.360Z,51.54
2023-03-04T11:54:07.252Z,52.05
2023-03-04T11:56:43.256Z,52.50
2023-03-04T11:59:20.375Z,52.42
2023-03-04T12:02:11.198Z,51.78
2023-03-04T12:04:59.855Z,51.35
2023-03-04T12:07:40.070Z,51.26
2023-03-04T12:10:18.405Z,52.05
2023-03-04T12:13:09.594Z,51.69
2023-03-04T12:16:11.487Z,52.13
2023-03-04T12:18:48.729Z,50.87
2023-03-04T12:21:33.740Z,51.77
2023-03-04T12:24:27.896Z,51.26
2023-03-04T12:27:19.640Z,51.55
2023-03-04T12:30:20.433Z,51.32
2023-03-04T12:33:05.253Z,51.72
2023-03-04T12:35:52.514Z,51.30
2023-03-04T12:38:32.216Z,51.08
2023-03-04T12:40:58.594Z,50.77
2023-03-04T12:43:45.906Z,50.60
2023-03-04T12:46:24.779Z,51.40
2023-03-04T12:49:09.124Z,51.07
2023-03-04T12:51:40.425Z,50.32
2023-03-04T12:54:39.010Z,50.44
2023-03-04T12:57:13.588Z,50.08
2023-03-04T13:00:09.140Z,51.10
2023-03-04T13:02:59.909Z,50.82
2023-03-04T13:05:35.460Z,51.39
2023-03-04T13:08:23.562Z,50.41
2023-03-04T13:10:51.461Z,49.92
2023-03-04T13:13:37.270Z,49.54
2023-03-04T13:16:29.368Z,49.59
2023-03-04T13:18:55.952Z,48.26
2023-03-04T13:21:25.695Z,48.06
2023-03-04T13:23:53.614Z,48.51
2023-03-04T13:26:35.260Z,48.56
2023-03-04T13:29:13.891Z,49.22
2023-03-04T13:31:59.661Z,49.30
2023-03-04T13:34:47.397Z,49.72
2023-03-04T13:37:34.631Z,49.75
2023-03-04T13:40:29.535Z,49.55
2023-03-04T13:42:56.123Z,48.90
2023-03-04T13:45:37.218Z,49.37
2023-03-04T13:48:23.164Z,48.83
2023-03-04T13:50:51.582Z,47.93
2023-03-04T13:53:40.789Z,48.58
2023-03-04T13:56:25.378Z,48.69
2023-03-04T13:59:04.140Z,48.61
2023-03-04T14:01:32.922Z,46.95
2023-03-04T14:04:00.469Z,46.57
2023-03-04T14:06:29.718Z,47.02
2023-03-04T14:08:57.316Z,46.80
2023-03-04T14:11:41.756Z,47.44
2023-03-04T14:14:16.792Z,47.03
2023-03-04T14:16:52.609Z,47.13
2023-03-04T14:19:36.070Z,48.02
2023-03-04T14:22:02.805Z,47.67
2023-03-04T14:24:30.996Z,48.54
2023-03-04T14:27:11.623Z,47.83
2023-03-04T14:29:38.165Z,47.56
2023-03-04T14:32:05.815Z,47.93
2023-03-04T14:34:36.510Z,47.84
2023-03-04T14:37:15.549Z,47.17
2023-03-04T14:39:43.341Z,47.66
2023-03-04T14:42:14.233Z,47.27
2023-03-04T14:44:48.809Z,47.42
2023-03-04T14:47:30.569Z,48.10
2023-03-04T14:49:57.505Z,47.14
2023-03-04T14:52:39.639Z,48.01
2023-03-04T14:55:15.202Z,47.88
2023-03-04T14:57:44.129Z,48.07
2023-03-04T15:00:22.646Z,48.63
2023-03-04T15:02:54.552Z,47.87
2023-03-04T15:05:28.798Z,47.64
2023-03-04T15:07:58.039Z,47.62
2023-03-04T15:10:35.394Z,47.86
2023-03-04T15:13:03.957Z,48.55
2023-03-04T15:15:42.664Z,48.10
2023-03-04T15:18:30.058Z,48.36
2023-03-04T15:20:58.425Z,48.21
2023-03-04T15:23:26.073Z,48.22
2023-03-04T15:26:04.573Z,48.60
2023-03-04T15:28:37.014Z,48.83
2023-03-04T15:31:05.123Z,49.07
2023-03-04T15:33:32.012Z,47.66
2023-03-04T15:36:01.963Z,47.44
2023-03-04T15:38:29.881Z,47.58
2023-03-04T15:40:59.574Z,47.31
2023-03-04T15:43:26.210Z,47.66
2023-03-04T15:45:53.583Z,48.25
2023-03-04T15:48:20.697Z,48.40
2023-03-04T15:50:59.233Z,48.78
2023-03-04T15:53:33.045Z,49.07
2023-03-04T15:56:00.656Z,49.05
2023-03-04T15:58:27.239Z,49.72
2023-03-04T16:00:53.825Z,49.35
2023-03-04T16:03:24.091Z,49.93
2023-03-04T16:05:51.940Z,49.38
2023-03-04T16:08:21.511Z,49.57
2023-03-04T16:10:48.613Z,49.82
2023-03-04T16:13:18.086Z,49.58
2023-03-04T16:15:44.894Z,49.53
2023-03-04T16:20:47.441Z,49.71
2023-03-04T16:23:21.794Z,49.84
2023-03-04T16:25:51.272Z,49.09
2023-03-04T16:28:18.107Z,48.79
2023-03-04T16:30:44.584Z,49.42
2023-03-04T16:33:11.580Z,48.44
2023-03-04T16:35:39.603Z,48.65
2023-03-04T16:38:17.205Z,48.83
2023-03-04T16:40:43.750Z,48.89
2023-03-04T16:43:13.177Z,48.72
2023-03-04T16:45:40.308Z,48.77
2023-03-04T16:48:06.861Z,48.88
2023-03-04T16:50:36.159Z,48.83
2023-03-04T16:53:03.794Z,49.09
2023-03-04T16:55:31.669Z,48.87
2023-03-04T16:57:59.048Z,49.01
2023-03-04T17:00:28.246Z,49.63
2023-03-04T17:02:57.619Z,49.24
2023-03-04T17:05:27.088Z,49.07
2023-03-04T17:07:53.676Z,49.19
2023-03-04T17:10:20.828Z,49.35
2023-03-04T17:12:47.609Z,48.88
2023-03-04T17:15:14.577Z,49.33
2023-03-04T17:17:42.759Z,49.51
2023-03-04T17:20:13.328Z,49.37
2023-03-04T17:22:40.163Z,49.58
2023-03-04T17:25:07.088Z,49.20
2023-03-04T17:27:33.621Z,49.19
2023-03-04T22:32:36.139Z,51.36
2023-03-04T22:35:02.812Z,51.54
2023-03-04T22:37:29.289Z,51.74
2023-03-04T22:39:57.116Z,51.93
2023-03-04T22:42:23.571Z,51.83
2023-03-04T22:44:50.018Z,51.88
2023-03-04T22:47:16.565Z,51.88
2023-03-04T22:49:43.065Z,51.98
2023-03-04T22:52:09.593Z,51.83
2023-03-04T22:54:36.024Z,52.15
2023-03-04T22:57:02.471Z,51.80
2023-03-04T22:59:28.947Z,52.13
2023-03-04T23:01:57.156Z,52.06
2023-03-04T23:04:23.895Z,51.92
2023-03-04T23:06:50.346Z,51.92
2023-03-04T23:09:16.770Z,51.93
2023-03-04T23:11:43.467Z,52.44
2023-03-04T23:14:11.644Z,52.38
2023-03-04T23:16:43.157Z,52.47
2023-03-04T23:19:15.244Z,52.75
2023-03-04T23:21:42.478Z,52.75
2023-03-04T23:24:10.675Z,52.85
2023-03-04T23:26:39.937Z,52.99
2023-03-04T23:29:09.261Z,53.00
2023-03-04T23:31:36.328Z,53.60
2023-03-04T23:34:03.882Z,53.15
2023-03-04T23:36:36.045Z,53.30
2023-03-04T23:39:03.608Z,53.37
2023-03-04T23:41:31.021Z,53.39
2023-03-04T23:43:59.032Z,53.49
2023-03-04T23:46:26.856Z,53.34
2023-03-04T23:48:54.166Z,53.35
2023-03-04T23:51:23.927Z,53.49
2023-03-04T23:53:50.422Z,52.93
2023-03-04T23:56:23.197Z,53.24
2023-03-04T23:58:50.466Z,53.34
